Time;durP1;ratioP1;P1;durP2;ratioP2;P2;SDS_P1;SDS_P2;PMS_P1;PMS_P2;Temp;Humidity;BMP_temperature;BMP_pressure;BME280_temperature;BME280_humidity;BME280_pressure;Samples;Min_cycle;Max_cycle;Signal;HPM_P1;HPM_P2
2023/07/18 00:00:45;;;;;;;6.65;6.05;;;;;;;19.70;100.00;96036.50;5014686;28;20100;-70
2023/07/18 00:03:15;;;;;;;8.25;6.57;;;;;;;19.67;100.00;96001.34;5011657;28;20450;-71
2023/07/18 00:05:41;;;;;;;7.10;6.40;;;;;;;19.65;100.00;96008.72;5011034;28;20029;-70
2023/07/18 00:08:06;;;;;;;6.45;5.82;;;;;;;19.64;100.00;95991.03;5010074;28;20021;-70
2023/07/18 00:10:32;;;;;;;7.60;6.38;;;;;;;19.61;100.00;95982.41;5015103;28;20121;-70
2023/07/18 00:12:58;;;;;;;6.25;5.75;;;;;;;19.65;100.00;95993.53;5013983;28;20022;-70
2023/07/18 00:15:28;;;;;;;7.88;6.05;;;;;;;19.67;100.00;95983.47;5012701;28;20022;-70
2023/07/18 00:17:54;;;;;;;6.75;6.15;;;;;;;19.62;100.00;95977.91;5011779;28;20478;-70
2023/07/18 00:20:22;;;;;;;7.72;6.57;;;;;;;19.58;100.00;95979.31;5013928;28;20026;-70
2023/07/18 00:22:49;;;;;;;11.35;6.57;;;;;;;19.45;100.00;95948.78;5010912;28;20521;-70
2023/07/18 00:25:19;;;;;;;7.63;6.88;;;;;;;19.40;100.00;95897.81;5011685;28;20026;-70
2023/07/18 00:27:46;;;;;;;6.55;5.75;;;;;;;19.35;100.00;95894.91;5007283;28;20025;-70
2023/07/18 00:30:12;;;;;;;6.80;6.07;;;;;;;19.35;100.00;95876.22;5013463;28;20424;-70
2023/07/18 00:32:38;;;;;;;7.07;6.43;;;;;;;19.33;100.00;95839.03;5011955;28;20513;-70
2023/07/18 00:35:04;;;;;;;6.55;5.97;;;;;;;19.31;100.00;95834.91;5010571;28;20025;-70
2023/07/18 00:37:29;;;;;;;6.65;6.13;;;;;;;19.30;100.00;95791.38;5013107;28;20133;-70
2023/07/18 00:39:55;;;;;;;8.45;6.72;;;;;;;19.29;100.00;95735.53;5014271;28;20053;-70
2023/07/18 00:42:20;;;;;;;7.60;6.93;;;;;;;19.24;100.00;95720.13;5008297;28;20515;-70
2023/07/18 00:44:49;;;;;;;6.85;6.13;;;;;;;19.17;100.00;95677.38;5001550;28;20407;-71
2023/07/18 00:47:15;;;;;;;7.20;6.43;;;;;;;19.21;100.00;95683.13;5012737;28;20416;-69
2023/07/18 00:49:41;;;;;;;7.45;6.55;;;;;;;19.24;100.00;95673.91;5020854;28;20022;-70
2023/07/18 00:52:07;;;;;;;8.10;7.30;;;;;;;19.26;100.00;95685.22;5013141;28;20029;-70
2023/07/18 00:54:33;;;;;;;7.60;6.90;;;;;;;19.22;100.00;95643.94;5011435;28;20113;-70
2023/07/18 00:56:59;;;;;;;7.10;6.40;;;;;;;19.22;100.00;95647.41;5008902;28;20563;-70
2023/07/18 00:59:27;;;;;;;7.07;6.40;;;;;;;19.24;100.00;95634.72;5010478;28;20029;-70
2023/07/18 01:01:53;;;;;;;7.53;6.53;;;;;;;19.12;100.00;95607.78;5010740;28;20087;-70
2023/07/18 01:04:19;;;;;;;11.55;6.78;;;;;;;19.10;100.00;95601.78;5012514;28;20017;-69
2023/07/18 01:06:46;;;;;;;7.97;6.80;;;;;;;19.09;100.00;95532.63;5013851;28;20091;-70
2023/07/18 01:09:11;;;;;;;12.23;6.22;;;;;;;19.08;100.00;95510.44;5013619;28;20041;-70
2023/07/18 01:11:36;;;;;;;8.55;7.00;;;;;;;19.09;100.00;95492.63;5012723;28;20021;-70
2023/07/18 01:14:03;;;;;;;7.78;7.00;;;;;;;18.98;100.00;95475.31;5009266;28;20050;-70
2023/07/18 01:16:29;;;;;;;6.88;6.05;;;;;;;18.99;100.00;95455.66;5011168;28;20032;-70
2023/07/18 01:18:54;;;;;;;7.03;6.28;;;;;;;18.99;100.00;95426.31;5006592;28;20025;-70
2023/07/18 01:21:21;;;;;;;7.53;6.65;;;;;;;18.99;100.00;95416.44;5009383;28;20033;-70
2023/07/18 01:23:46;;;;;;;9.77;6.70;;;;;;;18.97;100.00;95389.13;5011203;28;20541;-70
2023/07/18 01:26:12;;;;;;;7.90;6.90;;;;;;;18.97;100.00;95380.31;5011883;28;20245;-70
2023/07/18 01:28:38;;;;;;;7.43;6.78;;;;;;;18.98;100.00;95373.94;4994183;28;20092;-70
2023/07/18 01:31:05;;;;;;;6.85;6.22;;;;;;;18.93;100.00;95353.22;5011688;28;20105;-69
2023/07/18 01:33:31;;;;;;;7.85;7.05;;;;;;;18.91;100.00;95312.59;5010888;28;20388;-70
2023/07/18 01:35:56;;;;;;;6.55;5.95;;;;;;;18.87;100.00;95244.69;5012626;28;20052;-70
2023/07/18 01:38:29;;;;;;;7.65;6.90;;;;;;;18.86;100.00;95214.53;5003595;28;20030;-70
2023/07/18 01:41:01;;;;;;;7.97;7.28;;;;;;;18.85;100.00;95180.88;5010937;28;20014;-70
2023/07/18 01:43:27;;;;;;;7.88;7.07;;;;;;;18.83;100.00;95163.47;5006997;28;20029;-70
2023/07/18 01:45:57;;;;;;;7.40;6.60;;;;;;;18.83;100.00;95126.94;5013275;28;20022;-70
2023/07/18 01:48:23;;;;;;;7.57;6.78;;;;;;;18.71;100.00;95069.97;5009505;28;20022;-70
2023/07/18 01:50:51;;;;;;;8.13;7.00;;;;;;;18.62;100.00;95018.72;5029246;28;20022;-70
2023/07/18 01:53:17;;;;;;;7.75;6.82;;;;;;;18.63;100.00;94991.03;5009360;28;20083;-70
2023/07/18 01:55:42;;;;;;;7.25;6.65;;;;;;;18.68;100.00;94913.06;5015889;28;20022;-69
2023/07/18 01:58:07;;;;;;;7.53;6.38;;;;;;;18.74;100.00;94848.25;5017203;28;20033;-69
2023/07/18 02:00:35;;;;;;;9.80;6.80;;;;;;;18.80;100.00;94811.94;5018462;28;20378;-70
2023/07/18 02:03:01;;;;;;;8.50;6.57;;;;;;;18.85;100.00;94599.59;5017630;28;20083;-70
2023/07/18 02:05:29;;;;;;;6.35;5.78;;;;;;;18.86;100.00;94409.25;5012120;28;20069;-70
2023/07/18 02:07:56;;;;;;;10.23;6.53;;;;;;;18.92;100.00;94470.72;5006728;28;20106;-69
2023/07/18 02:10:22;;;;;;;7.05;6.45;;;;;;;18.97;100.00;94505.53;5012595;28;20441;-69
2023/07/18 02:12:49;;;;;;;8.15;7.40;;;;;;;18.95;100.00;94513.75;5012210;28;20061;-70
2023/07/18 02:15:14;;;;;;;7.43;6.72;;;;;;;18.97;100.00;94476.19;5014761;28;20068;-69
2023/07/18 02:17:40;;;;;;;7.55;6.85;;;;;;;18.98;100.00;94462.66;5009105;28;20021;-70
2023/07/18 02:20:08;;;;;;;12.90;6.93;;;;;;;18.93;100.00;94416.38;5014285;28;20029;-70
2023/07/18 02:22:34;;;;;;;7.80;6.88;;;;;;;18.90;100.00;94346.44;5010500;28;20021;-70
2023/07/18 02:25:00;;;;;;;7.20;6.60;;;;;;;18.84;100.00;94315.34;5004130;28;20033;-70
2023/07/18 02:27:25;;;;;;;8.40;6.70;;;;;;;18.84;100.00;94255.91;5009759;28;20022;-70
2023/07/18 02:29:51;;;;;;;7.20;6.45;;;;;;;18.79;100.00;94024.66;5013087;28;20035;-69
2023/07/18 02:32:19;;;;;;;8.95;6.55;;;;;;;18.75;100.00;94106.13;5014175;28;20037;-70
2023/07/18 02:34:45;;;;;;;8.77;6.70;;;;;;;18.78;100.00;94107.50;5014201;28;20026;-69
2023/07/18 02:37:11;;;;;;;7.30;6.45;;;;;;;18.79;100.00;94091.28;5015766;28;20026;-69
2023/07/18 02:39:38;;;;;;;8.18;7.38;;;;;;;18.79;100.00;94090.47;5001739;28;20495;-69
2023/07/18 02:42:08;;;;;;;9.02;7.28;;;;;;;18.79;100.00;93981.19;5003871;28;20029;-70
2023/07/18 02:44:33;;;;;;;10.70;6.85;;;;;;;18.78;100.00;93927.06;5012745;28;20022;-70
2023/07/18 02:46:58;;;;;;;7.75;6.90;;;;;;;18.78;100.00;93872.94;5013683;28;20045;-70
2023/07/18 02:49:24;;;;;;;8.02;6.78;;;;;;;18.82;100.00;93831.44;5014960;28;20092;-70
2023/07/18 02:51:50;;;;;;;7.25;6.57;;;;;;;18.80;100.00;93788.22;5012084;28;20030;-70
2023/07/18 02:54:15;;;;;;;10.98;6.85;;;;;;;18.79;100.00;93826.56;4991066;28;20063;-70
2023/07/18 02:56:40;;;;;;;7.13;6.40;;;;;;;18.84;100.00;93821.34;5009617;28;20838;-70
2023/07/18 02:59:06;;;;;;;6.78;6.28;;;;;;;18.85;100.00;93834.44;5010715;28;20061;-70
2023/07/18 03:01:31;;;;;;;7.18;6.65;;;;;;;18.91;100.00;93843.34;5010704;28;20030;-70
2023/07/18 03:03:57;;;;;;;8.00;7.10;;;;;;;18.97;100.00;93865.56;5017088;28;20494;-70
2023/07/18 03:06:23;;;;;;;7.18;6.47;;;;;;;18.93;100.00;93886.56;5013557;28;20026;-69
2023/07/18 03:08:49;;;;;;;8.00;7.10;;;;;;;18.89;100.00;93896.09;5013918;28;20014;-69
2023/07/18 03:11:14;;;;;;;7.35;6.60;;;;;;;18.87;100.00;93850.19;5009586;28;20022;-70
2023/07/18 03:13:39;;;;;;;9.13;6.70;;;;;;;18.88;100.00;93875.81;5005060;28;20018;-70
2023/07/18 03:16:06;;;;;;;6.68;6.00;;;;;;;18.93;100.00;93867.91;5006284;28;20050;-70
2023/07/18 03:18:32;;;;;;;9.18;7.05;;;;;;;18.95;100.00;93897.78;5009389;28;20021;-70
2023/07/18 03:20:57;;;;;;;11.93;7.13;;;;;;;18.95;100.00;93873.78;5017323;28;20028;-70
2023/07/18 03:23:24;;;;;;;8.57;6.43;;;;;;;18.98;100.00;93920.50;5012748;28;20090;-69
2023/07/18 03:25:50;;;;;;;9.20;6.95;;;;;;;19.00;100.00;93931.78;5011778;28;20453;-69
2023/07/18 03:28:15;;;;;;;8.05;6.15;;;;;;;19.02;100.00;93917.19;5013292;28;20029;-69
2023/07/18 03:30:40;;;;;;;10.02;7.25;;;;;;;19.06;100.00;93880.16;5008305;28;20407;-69
2023/07/18 03:33:06;;;;;;;8.00;6.70;;;;;;;19.07;100.00;93871.09;5008464;28;20160;-70
2023/07/18 03:35:32;;;;;;;8.52;6.80;;;;;;;19.08;100.00;93872.72;5014637;28;20022;-69
2023/07/18 03:37:58;;;;;;;8.90;8.13;;;;;;;19.10;100.00;93881.28;5012131;28;20578;-69
2023/07/18 03:40:23;;;;;;;8.77;7.30;;;;;;;19.09;100.00;93781.00;5004030;28;20084;-70
2023/07/18 03:42:49;;;;;;;12.32;7.97;;;;;;;19.10;100.00;93625.28;5008042;28;20028;-70
2023/07/18 03:45:15;;;;;;;6.93;6.28;;;;;;;19.16;100.00;93676.84;5010242;28;20022;-70
2023/07/18 03:47:42;;;;;;;8.07;7.40;;;;;;;19.20;100.00;93807.84;5012962;28;20022;-70
2023/07/18 03:50:11;;;;;;;10.25;7.63;;;;;;;19.18;100.00;93858.75;5011662;28;20042;-70
2023/07/18 03:52:37;;;;;;;10.32;6.90;;;;;;;19.14;100.00;93868.28;5012632;28;20029;-70
2023/07/18 03:55:04;;;;;;;8.70;7.15;;;;;;;19.16;100.00;93900.88;5023814;28;20383;-70
2023/07/18 03:57:31;;;;;;;7.68;6.28;;;;;;;19.15;100.00;93952.59;5012213;28;20022;-69
2023/07/18 03:59:57;;;;;;;7.78;6.07;;;;;;;19.15;100.00;94000.59;5040870;28;20030;-70
2023/07/18 04:02:22;;;;;;;8.02;6.55;;;;;;;19.13;100.00;94040.03;5013344;28;20033;-70
2023/07/18 04:04:47;;;;;;;8.40;6.40;;;;;;;19.13;100.00;93920.84;5006905;28;20624;-69
2023/07/18 04:07:13;;;;;;;7.40;6.65;;;;;;;19.15;100.00;93873.41;5011779;28;20036;-70
2023/07/18 04:09:38;;;;;;;7.40;6.72;;;;;;;19.13;100.00;93851.50;5016425;28;20050;-69
2023/07/18 04:12:05;;;;;;;7.00;6.40;;;;;;;19.07;100.00;93816.97;5009070;28;20026;-70
2023/07/18 04:14:30;;;;;;;8.70;6.57;;;;;;;19.03;100.00;93817.47;5011987;28;20105;-70
2023/07/18 04:16:56;;;;;;;7.43;6.70;;;;;;;18.96;100.00;93808.75;5007899;28;20706;-70
2023/07/18 04:19:21;;;;;;;8.43;7.57;;;;;;;18.93;100.00;93821.78;5014691;28;20053;-70
2023/07/18 04:21:47;;;;;;;8.45;6.47;;;;;;;18.90;100.00;93748.41;5011702;28;20026;-70
2023/07/18 04:24:12;;;;;;;7.50;6.78;;;;;;;18.89;100.00;93746.78;5016162;28;20021;-70
2023/07/18 04:26:37;;;;;;;7.63;6.50;;;;;;;18.89;100.00;93709.47;5016772;28;20109;-70
2023/07/18 04:29:04;;;;;;;8.25;6.88;;;;;;;18.83;100.00;93593.16;5003076;28;20033;-70
2023/07/18 04:31:30;;;;;;;7.65;6.60;;;;;;;18.88;100.00;93556.69;5008278;28;20029;-70
2023/07/18 04:33:55;;;;;;;8.77;7.32;;;;;;;19.00;100.00;93532.63;5009716;28;20491;-70
2023/07/18 04:36:20;;;;;;;6.78;6.18;;;;;;;19.10;100.00;93486.63;5008502;28;20091;-70
2023/07/18 04:38:46;;;;;;;7.10;6.40;;;;;;;19.17;100.00;93535.25;5008335;28;20029;-70
2023/07/18 04:41:11;;;;;;;7.03;6.40;;;;;;;19.24;100.00;93502.25;5011644;28;20296;-69
2023/07/18 04:43:36;;;;;;;8.48;6.20;;;;;;;19.33;100.00;93621.59;5007246;28;20097;-70
2023/07/18 04:46:04;;;;;;;7.85;7.05;;;;;;;19.31;100.00;93706.41;5024889;28;20018;-70
2023/07/18 04:48:29;;;;;;;10.82;6.93;;;;;;;19.36;100.00;93712.84;5014264;28;20089;-70
2023/07/18 04:51:00;;;;;;;12.07;6.65;;;;;;;19.43;100.00;93746.31;5013446;28;20533;-70
2023/07/18 04:53:27;;;;;;;6.80;6.13;;;;;;;19.45;100.00;93666.84;5014650;28;20021;-70
2023/07/18 04:55:55;;;;;;;6.75;6.15;;;;;;;19.50;100.00;93692.78;5013644;28;20473;-70
2023/07/18 04:58:22;;;;;;;6.80;6.10;;;;;;;19.57;100.00;93689.94;5014052;28;20100;-70
2023/07/18 05:00:48;;;;;;;7.60;6.30;;;;;;;19.58;100.00;93702.22;5013899;28;20038;-70
2023/07/18 05:03:13;;;;;;;10.15;7.18;;;;;;;19.58;100.00;93728.91;5014159;28;20494;-70
2023/07/18 05:05:39;;;;;;;9.07;7.15;;;;;;;19.53;100.00;93736.81;5012906;28;20499;-70
2023/07/18 05:08:04;;;;;;;12.15;7.10;;;;;;;19.53;100.00;93760.84;5014285;28;20022;-70
2023/07/18 05:10:30;;;;;;;13.68;6.70;;;;;;;19.55;100.00;93774.75;5013867;28;20018;-70
2023/07/18 05:12:56;;;;;;;7.68;6.40;;;;;;;19.60;100.00;93748.94;5014142;28;20030;-70
2023/07/18 05:15:22;;;;;;;11.27;7.45;;;;;;;19.64;100.00;93714.56;5017814;28;20237;-70
2023/07/18 05:17:48;;;;;;;7.30;6.70;;;;;;;19.67;100.00;93729.28;5002201;28;20439;-70
2023/07/18 05:20:13;;;;;;;8.55;7.28;;;;;;;19.59;100.00;93783.91;5011200;28;20030;-70
2023/07/18 05:22:40;;;;;;;7.50;6.30;;;;;;;19.62;100.00;93812.78;5012369;28;20029;-69
2023/07/18 05:25:11;;;;;;;10.05;6.72;;;;;;;19.65;100.00;93871.00;5014064;28;20113;-70
2023/07/18 05:27:38;;;;;;;10.35;6.38;;;;;;;19.70;100.00;93899.63;5023214;28;20045;-70
2023/07/18 05:30:06;;;;;;;7.15;6.40;;;;;;;19.68;100.00;93939.13;5017243;28;20494;-70
2023/07/18 05:32:32;;;;;;;14.43;6.70;;;;;;;19.68;100.00;93955.13;5016413;28;20514;-70
2023/07/18 05:35:00;;;;;;;6.63;5.90;;;;;;;19.82;100.00;93947.59;5006329;28;20017;-70
2023/07/18 05:37:28;;;;;;;9.65;6.75;;;;;;;19.96;100.00;93938.22;5017811;28;20034;-70
2023/07/18 05:39:54;;;;;;;7.15;6.47;;;;;;;20.01;100.00;93940.19;5017438;28;20017;-70
2023/07/18 05:42:19;;;;;;;7.72;6.05;;;;;;;20.05;100.00;93941.31;5017574;28;20041;-70
2023/07/18 05:44:44;;;;;;;8.45;6.88;;;;;;;20.11;100.00;93952.88;5017795;28;20041;-70
2023/07/18 05:47:10;;;;;;;7.70;5.97;;;;;;;20.20;100.00;93943.38;5019387;28;20053;-70
2023/07/18 05:49:35;;;;;;;6.10;5.55;;;;;;;20.22;100.00;93988.56;5035248;28;20026;-70
2023/07/18 05:52:01;;;;;;;6.35;5.72;;;;;;;20.22;100.00;94005.41;5022205;28;20033;-70
2023/07/18 05:54:28;;;;;;;7.00;6.35;;;;;;;20.20;100.00;94052.91;5016499;28;20030;-70
2023/07/18 05:56:54;;;;;;;7.97;6.15;;;;;;;20.11;100.00;94097.91;5037868;28;20036;-70
2023/07/18 05:59:19;;;;;;;7.50;6.53;;;;;;;20.13;100.00;94119.06;5017271;28;20546;-70
2023/07/18 06:01:45;;;;;;;11.18;6.45;;;;;;;20.11;100.00;94143.34;5013606;28;20037;-70
2023/07/18 06:04:10;;;;;;;7.30;6.57;;;;;;;20.16;100.00;94159.47;5009020;28;20022;-70
2023/07/18 06:06:37;;;;;;;13.30;6.95;;;;;;;20.26;100.00;94156.19;5013526;28;20022;-70
2023/07/18 06:09:03;;;;;;;10.25;6.97;;;;;;;20.30;100.00;94156.50;5008737;28;20061;-70
2023/07/18 06:11:29;;;;;;;8.93;6.13;;;;;;;20.41;100.00;94150.28;5011020;28;20026;-70
2023/07/18 06:13:54;;;;;;;11.10;6.65;;;;;;;20.55;100.00;94125.88;5016739;28;20749;-70
2023/07/18 06:16:20;;;;;;;9.48;6.03;;;;;;;20.72;100.00;94081.25;5016808;28;20034;-70
2023/07/18 06:18:46;;;;;;;6.80;6.20;;;;;;;20.80;100.00;94104.13;5017007;28;20839;-70
2023/07/18 06:21:11;;;;;;;8.60;6.63;;;;;;;20.92;100.00;94124.63;5014983;28;20053;-70
2023/07/18 06:23:36;;;;;;;7.30;6.40;;;;;;;21.08;100.00;94137.16;5016934;28;20026;-70
2023/07/18 06:26:03;;;;;;;7.75;5.90;;;;;;;21.18;100.00;94164.06;5018504;28;20085;-70
2023/07/18 06:28:28;;;;;;;10.10;6.13;;;;;;;21.25;100.00;94173.78;5017238;28;20030;-70
2023/07/18 06:30:55;;;;;;;6.72;6.00;;;;;;;21.26;100.00;94253.81;5011169;28;20034;-69
2023/07/18 06:33:21;;;;;;;6.55;5.95;;;;;;;21.26;100.00;94298.50;5015947;28;20128;-71
2023/07/18 06:35:54;;;;;;;9.55;5.75;;;;;;;21.40;100.00;94321.22;5016471;28;20072;-69
2023/07/18 06:38:19;;;;;;;8.48;5.10;;;;;;;21.68;100.00;94337.47;5014713;28;20188;-70
2023/07/18 06:40:46;;;;;;;10.38;5.80;;;;;;;21.90;100.00;94348.22;5016742;28;20026;-72
2023/07/18 06:43:12;;;;;;;7.80;5.28;;;;;;;22.04;100.00;94381.66;5014066;28;20045;-71
2023/07/18 06:45:37;;;;;;;6.63;5.72;;;;;;;22.07;100.00;94444.66;5016502;28;20026;-71
2023/07/18 06:48:03;;;;;;;9.68;5.53;;;;;;;22.11;100.00;94474.44;5015324;28;20097;-71
2023/07/18 06:50:29;;;;;;;6.32;5.28;;;;;;;22.22;100.00;94521.81;5016237;28;20034;-71
2023/07/18 06:52:54;;;;;;;8.60;5.18;;;;;;;22.27;100.00;94545.19;5016324;28;20442;-71
2023/07/18 06:55:20;;;;;;;7.60;5.45;;;;;;;22.23;100.00;94566.31;5016161;28;20072;-70
2023/07/18 06:57:45;;;;;;;6.88;5.25;;;;;;;22.23;100.00;94584.25;5007137;28;20886;-71
2023/07/18 07:00:12;;;;;;;7.40;5.07;;;;;;;22.28;100.00;94590.53;5026111;28;20056;-71
2023/07/18 07:02:38;;;;;;;5.32;4.75;;;;;;;22.34;100.00;94604.84;5015841;28;20033;-71
2023/07/18 07:05:04;;;;;;;7.10;5.10;;;;;;;22.47;100.00;94611.78;5015607;28;20430;-70
2023/07/18 07:07:29;;;;;;;6.93;4.63;;;;;;;22.78;100.00;94589.97;5014232;28;20022;-71
2023/07/18 07:09:55;;;;;;;5.60;4.57;;;;;;;23.12;100.00;94561.19;5016090;28;20030;-71
2023/07/18 07:12:20;;;;;;;5.97;4.63;;;;;;;23.49;100.00;94543.69;5015733;28;20155;-71
2023/07/18 07:14:46;;;;;;;8.65;4.47;;;;;;;23.73;100.00;94562.19;5016109;28;20109;-71
2023/07/18 07:17:11;;;;;;;5.75;5.20;;;;;;;23.84;100.00;94600.72;5015855;28;20065;-71
2023/07/18 07:19:36;;;;;;;8.93;5.70;;;;;;;23.91;100.00;94617.47;5015248;28;20124;-71
2023/07/18 07:22:02;;;;;;;8.85;5.10;;;;;;;24.14;100.00;94635.22;5015228;28;20025;-72
2023/07/18 07:24:27;;;;;;;11.80;4.93;;;;;;;24.30;100.00;94646.09;5015465;28;20052;-71
2023/07/18 07:26:53;;;;;;;6.70;4.82;;;;;;;24.29;100.00;94652.53;5018367;28;20767;-71
2023/07/18 07:29:18;;;;;;;7.03;4.60;;;;;;;24.12;100.00;94672.28;5015469;28;20033;-71
2023/07/18 07:31:43;;;;;;;5.90;5.00;;;;;;;24.07;100.00;94677.59;5015754;28;20524;-71
2023/07/18 07:34:10;;;;;;;6.93;5.18;;;;;;;24.13;100.00;94678.47;5015100;28;20949;-72
2023/07/18 07:36:36;;;;;;;6.63;5.93;;;;;;;24.19;100.00;94674.75;5015660;28;20076;-72
2023/07/18 07:39:03;;;;;;;8.88;6.65;;;;;;;24.16;100.00;94680.66;5014975;28;20025;-71
2023/07/18 07:41:28;;;;;;;9.43;6.35;;;;;;;24.50;100.00;94661.63;5014200;28;20021;-71
2023/07/18 07:43:54;;;;;;;8.48;5.72;;;;;;;25.06;100.00;94632.75;5014950;28;20025;-71
2023/07/18 07:46:19;;;;;;;8.77;4.78;;;;;;;25.59;100.00;94605.84;5016692;28;20495;-71
2023/07/18 07:48:44;;;;;;;8.00;5.10;;;;;;;25.99;100.00;94601.66;5015134;28;20770;-72
2023/07/18 07:51:14;;;;;;;6.75;4.70;;;;;;;26.39;100.00;94591.22;5016531;28;20402;-71
2023/07/18 07:53:39;;;;;;;6.05;4.90;;;;;;;26.67;100.00;94582.88;5015108;28;20021;-72
2023/07/18 07:56:05;;;;;;;7.20;5.13;;;;;;;26.36;100.00;94610.66;5015388;28;20636;-71
2023/07/18 07:58:30;;;;;;;6.43;5.30;;;;;;;26.49;100.00;94600.38;5018186;28;20445;-72
2023/07/18 08:00:55;;;;;;;7.32;5.20;;;;;;;26.49;100.00;94606.59;5014962;28;20028;-72
2023/07/18 08:03:21;;;;;;;6.65;5.10;;;;;;;26.29;100.00;94618.16;5014469;28;20030;-71
2023/07/18 08:05:46;;;;;;;5.38;4.70;;;;;;;26.68;100.00;94597.97;5013864;28;20025;-72
2023/07/18 08:08:12;;;;;;;9.57;5.35;;;;;;;26.86;100.00;94627.16;5014714;28;20030;-70
2023/07/18 08:10:37;;;;;;;10.75;6.28;;;;;;;27.13;100.00;94612.53;5014795;28;20030;-69
2023/07/18 08:13:03;;;;;;;5.97;4.55;;;;;;;27.28;100.00;94600.88;5015271;28;20022;-71
2023/07/18 08:15:28;;;;;;;7.13;5.22;;;;;;;27.25;100.00;94581.69;5014884;28;20065;-70
2023/07/18 08:17:57;;;;;;;5.88;4.88;;;;;;;26.71;100.00;94605.53;5014467;28;20053;-70
2023/07/18 08:20:23;;;;;;;8.10;5.25;;;;;;;26.47;100.00;94597.97;5014881;28;20018;-72
2023/07/18 08:22:48;;;;;;;6.95;4.93;;;;;;;26.85;100.00;94570.72;5014422;28;20040;-69
2023/07/18 08:25:16;;;;;;;7.38;5.38;;;;;;;26.97;100.00;94573.13;5014054;28;20172;-70
2023/07/18 08:27:41;;;;;;;7.22;4.63;;;;;;;26.64;100.00;94580.69;5019653;28;20028;-69
2023/07/18 08:30:07;;;;;;;6.85;5.32;;;;;;;26.47;100.00;94573.69;5013377;28;20037;-71
2023/07/18 08:32:32;;;;;;;9.20;5.53;;;;;;;26.29;100.00;94585.81;5014731;28;20429;-70
2023/07/18 08:34:58;;;;;;;6.55;5.10;;;;;;;26.49;100.00;94573.41;5014614;28;20378;-68
2023/07/18 08:37:23;;;;;;;8.60;5.32;;;;;;;26.59;100.00;94568.03;5014412;28;20647;-71
2023/07/18 08:39:49;;;;;;;6.95;5.03;;;;;;;26.83;100.00;94553.94;4998294;28;20482;-71
2023/07/18 08:42:15;;;;;;;5.80;5.30;;;;;;;26.97;100.00;94540.72;5015471;28;20026;-71
2023/07/18 08:44:42;;;;;;;5.47;4.97;;;;;;;26.91;100.00;94521.00;5014262;28;20415;-70
2023/07/18 08:47:09;;;;;;;6.60;5.07;;;;;;;26.96;100.00;94515.59;5001598;28;20060;-71
2023/07/18 08:49:38;;;;;;;7.05;5.15;;;;;;;27.21;100.00;94503.09;5017904;28;20060;-71
2023/07/18 08:52:04;;;;;;;7.30;5.60;;;;;;;27.38;100.00;94493.84;5014331;28;20021;-71
2023/07/18 08:54:29;;;;;;;7.18;4.95;;;;;;;27.33;100.00;94494.69;5014235;28;20053;-72
2023/07/18 08:56:56;;;;;;;8.18;5.55;;;;;;;27.54;100.00;94483.81;5013928;28;20021;-71
2023/07/18 08:59:22;;;;;;;5.78;4.93;;;;;;;27.89;100.00;94463.00;5013728;28;20018;-71
2023/07/18 09:01:51;;;;;;;6.30;5.13;;;;;;;28.16;100.00;94442.81;5012400;28;20084;-68
2023/07/18 09:04:18;;;;;;;5.55;4.95;;;;;;;28.38;100.00;94446.94;5013409;28;20036;-69
2023/07/18 09:06:48;;;;;;;6.05;5.40;;;;;;;28.58;100.00;94437.81;5014335;28;20030;-69
2023/07/18 09:09:20;;;;;;;8.43;5.43;;;;;;;28.81;100.00;94436.22;5008110;28;20068;-70
2023/07/18 09:12:03;;;;;;;7.03;5.30;;;;;;;28.96;100.00;94434.44;5014197;28;20029;-70
2023/07/18 09:14:30;;;;;;;7.13;5.07;;;;;;;29.00;100.00;94452.53;5013807;28;20024;-70
2023/07/18 09:16:58;;;;;;;8.93;5.40;;;;;;;29.19;100.00;94440.94;5014089;28;20124;-70
2023/07/18 09:19:44;;;;;;;10.50;5.43;;;;;;;29.39;100.00;94436.31;5013930;28;20018;-69
2023/07/18 09:22:12;;;;;;;5.85;4.97;;;;;;;29.91;100.00;94447.25;5013739;28;20080;-70
2023/07/18 09:24:38;;;;;;;6.28;4.80;;;;;;;30.31;100.00;94457.75;5013654;28;20520;-71
2023/07/18 09:27:09;;;;;;;7.50;4.50;;;;;;;30.54;100.00;94509.50;5018130;28;20084;-71
2023/07/18 09:29:34;;;;;;;7.25;4.82;;;;;;;30.69;100.00;94585.28;5012521;28;20049;-71
2023/07/18 09:32:00;;;;;;;5.28;4.78;;;;;;;30.98;100.00;94673.09;5013547;28;20049;-71
2023/07/18 09:34:27;;;;;;;6.70;4.97;;;;;;;31.15;100.00;94930.72;5013792;28;20037;-71
2023/07/18 09:37:01;;;;;;;5.90;4.63;;;;;;;30.85;100.00;95009.63;5012660;28;20029;-72
2023/07/18 09:39:27;;;;;;;5.33;4.77;;;;;;;30.80;100.00;95145.50;5014125;28;20121;-72
2023/07/18 09:41:55;;;;;;;7.05;3.97;;;;;;;30.89;100.00;95226.41;5013664;28;20129;-71
2023/07/18 09:44:22;;;;;;;10.57;4.50;;;;;;;30.84;100.00;95274.25;5013596;28;20084;-71
2023/07/18 09:46:49;;;;;;;6.45;4.60;;;;;;;30.81;100.00;95353.59;5013798;28;20034;-72
2023/07/18 09:49:16;;;;;;;7.38;4.07;;;;;;;30.55;100.00;95540.28;4999564;28;20025;-71
2023/07/18 09:52:05;;;;;;;6.32;4.25;;;;;;;30.94;100.00;95547.81;5012714;28;20038;-72
2023/07/18 09:54:32;;;;;;;5.30;4.40;;;;;;;30.81;100.00;95513.09;5012575;28;20133;-72
2023/07/18 09:57:10;;;;;;;5.13;4.40;;;;;;;31.29;100.00;95548.03;5008309;28;20037;-72
2023/07/18 09:59:38;;;;;;;4.28;3.78;;;;;;;31.49;100.00;95562.59;5014553;28;20030;-73
2023/07/18 10:02:06;;;;;;;5.85;4.10;;;;;;;31.48;100.00;95583.56;5013902;28;20092;-72
2023/07/18 10:04:32;;;;;;;5.65;4.40;;;;;;;31.63;100.00;95560.91;5012509;28;20653;-73
2023/07/18 10:06:58;;;;;;;4.32;3.85;;;;;;;32.32;100.00;95600.25;5013871;28;20076;-72
2023/07/18 10:09:27;;;;;;;6.43;3.95;;;;;;;32.21;100.00;95622.13;5013452;28;20577;-73
2023/07/18 10:11:59;;;;;;;5.53;4.32;;;;;;;32.10;100.00;95607.75;5015241;28;20091;-72
2023/07/18 10:14:47;;;;;;;4.25;3.85;;;;;;;32.37;100.00;95649.25;5014725;28;20041;-72
2023/07/18 10:17:39;;;;;;;6.88;4.28;;;;;;;32.19;100.00;95643.38;5016690;28;20026;-73
2023/07/18 10:20:21;;;;;;;6.53;4.28;;;;;;;32.15;100.00;95550.53;5016705;28;20600;-75
2023/07/18 10:22:54;;;;;;;6.97;3.80;;;;;;;31.80;100.00;95603.31;5017026;28;20025;-72
2023/07/18 10:25:20;;;;;;;4.40;3.77;;;;;;;32.11;100.00;95584.06;5016307;28;20628;-71
2023/07/18 10:27:48;;;;;;;4.40;3.85;;;;;;;32.57;100.00;95657.28;5014648;28;20364;-71
2023/07/18 10:30:19;;;;;;;7.10;4.13;;;;;;;32.13;100.00;95615.34;5017647;28;20029;-71
2023/07/18 10:32:51;;;;;;;8.70;3.88;;;;;;;32.18;100.00;95546.44;4999838;28;20442;-71
2023/07/18 10:35:18;;;;;;;4.25;3.63;;;;;;;32.56;100.00;95535.78;5015365;28;20106;-70
2023/07/18 10:37:45;;;;;;;6.88;4.30;;;;;;;32.32;100.00;95445.00;5014787;28;20018;-71
2023/07/18 10:40:37;;;;;;;6.00;4.15;;;;;;;33.08;100.00;95486.22;5015489;28;20022;-71
2023/07/18 10:43:07;;;;;;;8.63;4.28;;;;;;;33.04;100.00;95498.78;5012986;28;20406;-70
2023/07/18 10:45:37;;;;;;;4.78;3.80;;;;;;;31.91;100.00;95459.81;5018167;28;20544;-70
2023/07/18 10:48:10;;;;;;;5.13;3.58;;;;;;;31.08;100.00;95390.41;5012544;28;20104;-69
2023/07/18 10:50:35;;;;;;;5.60;4.20;;;;;;;30.96;100.00;95332.88;5010826;28;20022;-70
2023/07/18 10:53:01;;;;;;;7.38;4.75;;;;;;;30.80;100.00;95322.09;5016102;28;20110;-70
2023/07/18 10:55:27;;;;;;;8.48;4.72;;;;;;;30.81;100.00;95342.72;5015414;28;20029;-71
2023/07/18 10:57:53;;;;;;;5.50;4.85;;;;;;;30.71;100.00;95337.34;5048312;28;20056;-70
2023/07/18 11:00:20;;;;;;;5.65;4.22;;;;;;;31.07;100.00;95352.63;5018194;28;20022;-71
2023/07/18 11:02:45;;;;;;;12.20;5.55;;;;;;;30.76;100.00;95336.53;5017440;28;20017;-71
2023/07/18 11:05:13;;;;;;;5.43;4.93;;;;;;;30.23;100.00;95283.50;5016980;28;20502;-73
2023/07/18 11:07:41;;;;;;;4.88;4.38;;;;;;;30.06;100.00;95238.50;5016815;28;20037;-72
2023/07/18 11:10:08;;;;;;;11.68;5.05;;;;;;;30.26;100.00;95302.75;5015746;28;20090;-72
2023/07/18 11:12:34;;;;;;;8.15;4.35;;;;;;;30.66;100.00;95364.56;5019015;28;20052;-69
2023/07/18 11:14:59;;;;;;;6.43;4.20;;;;;;;31.08;100.00;95401.28;5017770;28;20026;-72
2023/07/18 11:17:25;;;;;;;5.50;4.60;;;;;;;30.63;100.00;95405.84;5017449;28;20498;-73
2023/07/18 11:19:56;;;;;;;5.35;4.32;;;;;;;30.59;100.00;95386.53;5017805;28;20403;-72
2023/07/18 11:22:21;;;;;;;8.30;4.32;;;;;;;30.65;100.00;95381.94;5017434;28;20021;-70